Anastasia Island, Florida
Current Conditions -  °F | °C
As of 10:58 PM on Thursday 18 Dec 2014 (Local Time) from KSGJ Reporting Station
Clear Clear  
Wind Chill: 52°   Ceiling: Unl
Heat Index: 52°   Visibility: 10mi
Dew Point: 48°   Wind: 3mph
Humidity: 86%   Direction: 280°W
Pressure: 30.14"   Gusts: NA
Location:  29.8475°N, 81.2787°W
Report Text: KSGJ 190358Z AUTO 28003KT 10SM CLR 11/09 A3014 RMK AO2 SLP204 T01110089
Loading
Personal Weather Stations






























Interactive Weather Map New forecast layout! Learn more

10-Day Weather Forecast

Advertisements
Track Severe Weather on mobile